createdAt,value
2023-04-22T00:00:47.230Z,99.99
2023-04-22T00:01:47.202Z,99.99
2023-04-22T00:02:47.328Z,99.99
2023-04-22T00:03:47.401Z,99.99
2023-04-22T00:04:47.546Z,99.99
2023-04-22T00:05:47.205Z,99.99
2023-04-22T00:06:47.150Z,99.99
2023-04-22T00:07:47.134Z,99.99
2023-04-22T00:08:47.134Z,99.99
2023-04-22T00:09:47.157Z,99.99
2023-04-22T00:10:47.111Z,99.99
2023-04-22T00:11:47.318Z,99.99
2023-04-22T00:12:47.089Z,99.99
2023-04-22T00:13:47.086Z,99.99
2023-04-22T00:14:47.075Z,99.99
2023-04-22T00:15:47.142Z,99.99
2023-04-22T00:16:47.210Z,99.99
2023-04-22T00:17:47.103Z,99.99
2023-04-22T00:18:47.028Z,99.99
2023-04-22T00:19:47.022Z,99.99
2023-04-22T00:20:47.013Z,99.99
2023-04-22T00:21:47.017Z,99.99
2023-04-22T00:22:46.993Z,99.99
2023-04-22T00:23:46.998Z,99.99
2023-04-22T00:24:46.984Z,99.99
2023-04-22T00:25:46.963Z,99.99
2023-04-22T00:26:46.954Z,99.99
2023-04-22T00:27:46.938Z,99.99
2023-04-22T00:28:46.928Z,99.99
2023-04-22T00:29:46.920Z,99.99
2023-04-22T00:30:46.916Z,99.99
2023-04-22T00:31:47.023Z,99.99
2023-04-22T00:32:46.957Z,99.99
2023-04-22T00:33:46.890Z,99.99
2023-04-22T00:34:46.881Z,99.99
2023-04-22T00:35:46.872Z,99.99
2023-04-22T00:36:46.877Z,99.99
2023-04-22T00:37:46.840Z,99.99
2023-04-22T00:38:46.848Z,99.99
2023-04-22T00:39:46.837Z,99.99
2023-04-22T00:40:46.832Z,99.99
2023-04-22T00:41:46.816Z,99.99
2023-04-22T00:42:46.801Z,99.99
2023-04-22T00:43:46.794Z,99.99
2023-04-22T00:44:46.779Z,99.99
2023-04-22T00:45:46.776Z,99.99
2023-04-22T00:46:46.832Z,99.99
2023-04-22T00:47:46.832Z,99.99
2023-04-22T00:48:46.768Z,99.99
2023-04-22T00:49:46.726Z,99.99
2023-04-22T00:50:46.722Z,99.99
2023-04-22T00:51:46.709Z,99.99
2023-04-22T00:52:46.707Z,99.99
2023-04-22T00:53:46.691Z,99.99
2023-04-22T00:54:46.697Z,99.99
2023-04-22T00:55:46.676Z,99.99
2023-04-22T00:56:46.701Z,99.99
2023-04-22T00:57:46.672Z,99.99
2023-04-22T00:58:46.660Z,99.99
2023-04-22T00:59:46.640Z,99.99
2023-04-22T01:00:46.680Z,99.99
2023-04-22T01:01:46.664Z,99.99
2023-04-22T01:02:46.877Z,99.99
2023-04-22T01:03:46.748Z,99.99
2023-04-22T01:04:46.603Z,99.99
2023-04-22T01:05:46.584Z,99.99
2023-04-22T01:06:46.607Z,99.99
2023-04-22T01:07:46.547Z,99.99
2023-04-22T01:08:46.580Z,99.99
2023-04-22T01:09:46.539Z,99.99
2023-04-22T01:10:46.528Z,99.99
2023-04-22T01:11:46.516Z,99.99
2023-04-22T01:12:46.519Z,99.99
2023-04-22T01:13:46.500Z,99.99
2023-04-22T01:14:46.492Z,99.99
2023-04-22T01:15:46.478Z,99.99
2023-04-22T01:16:46.479Z,99.99
2023-04-22T01:17:46.484Z,99.99
2023-04-22T01:18:46.448Z,99.99
2023-04-22T01:19:46.433Z,99.99
2023-04-22T01:20:46.446Z,99.99
2023-04-22T01:21:46.409Z,99.99
2023-04-22T01:22:46.407Z,99.99
2023-04-22T01:23:46.410Z,99.99
2023-04-22T01:24:46.400Z,99.99
2023-04-22T01:25:46.376Z,99.99
2023-04-22T01:26:46.361Z,99.99
2023-04-22T01:27:46.344Z,99.99
2023-04-22T01:28:46.342Z,99.99
2023-04-22T01:29:46.336Z,99.99
2023-04-22T01:30:46.322Z,99.99
2023-04-22T01:31:46.391Z,99.99
2023-04-22T01:32:46.343Z,99.99
2023-04-22T01:33:46.288Z,99.99
2023-04-22T01:34:46.291Z,99.99
2023-04-22T01:35:46.279Z,99.99
2023-04-22T01:36:46.293Z,99.99
2023-04-22T01:37:46.256Z,99.99
2023-04-22T01:38:46.239Z,99.99
2023-04-22T01:39:46.231Z,99.99
2023-04-22T01:40:46.235Z,99.99
2023-04-22T01:41:46.201Z,99.99
2023-04-22T01:42:46.195Z,99.99
2023-04-22T01:43:46.217Z,99.99
2023-04-22T01:44:46.181Z,99.99
2023-04-22T01:45:46.203Z,99.99
2023-04-22T01:46:46.152Z,99.99
2023-04-22T01:47:46.178Z,99.99
2023-04-22T01:48:46.136Z,99.99
2023-04-22T01:49:46.142Z,99.99
2023-04-22T01:50:46.118Z,99.99
2023-04-22T01:51:46.120Z,99.99
2023-04-22T01:52:46.115Z,99.99
2023-04-22T01:53:46.085Z,99.99
2023-04-22T01:54:46.078Z,99.99
2023-04-22T01:55:46.052Z,99.99
2023-04-22T01:56:46.050Z,99.99
2023-04-22T01:57:46.046Z,99.99
2023-04-22T01:58:46.071Z,99.99
2023-04-22T01:59:46.021Z,99.99
2023-04-22T02:00:46.217Z,99.99
2023-04-22T02:01:46.043Z,99.99
2023-04-22T02:02:46.127Z,99.99
2023-04-22T02:03:46.181Z,99.99
2023-04-22T02:04:46.024Z,99.99
2023-04-22T02:05:45.950Z,99.99
2023-04-22T02:06:45.945Z,99.99
2023-04-22T02:07:45.937Z,99.99
2023-04-22T02:08:45.952Z,99.99
2023-04-22T02:09:46.378Z,99.99
2023-04-22T02:10:45.899Z,99.99
2023-04-22T02:11:45.893Z,99.99
2023-04-22T02:12:45.891Z,99.99
2023-04-22T02:13:45.882Z,99.99
2023-04-22T02:14:45.851Z,99.99
2023-04-22T02:15:45.877Z,99.99
2023-04-22T02:16:45.858Z,99.99
2023-04-22T02:17:45.824Z,99.99
2023-04-22T02:18:45.812Z,99.99
2023-04-22T02:19:45.893Z,99.99
2023-04-22T02:20:45.788Z,99.99
2023-04-22T02:21:45.781Z,99.99
2023-04-22T02:22:45.968Z,99.99
2023-04-22T02:23:45.784Z,99.99
2023-04-22T02:24:45.760Z,99.99
2023-04-22T02:25:45.747Z,99.99
2023-04-22T02:26:45.735Z,99.99
2023-04-22T02:27:45.734Z,99.99
2023-04-22T02:28:45.726Z,99.99
2023-04-22T02:29:45.713Z,99.99
2023-04-22T02:30:45.674Z,99.99
2023-04-22T02:31:45.733Z,99.99
2023-04-22T02:32:45.745Z,99.99
2023-04-22T02:33:45.663Z,99.99
2023-04-22T02:34:45.635Z,99.99
2023-04-22T02:35:45.620Z,99.99
2023-04-22T02:36:45.616Z,99.99
2023-04-22T02:37:45.633Z,99.99
2023-04-22T02:38:45.604Z,99.99
2023-04-22T02:39:45.582Z,99.99
2023-04-22T02:40:45.591Z,99.99
2023-04-22T02:41:45.597Z,99.99
2023-04-22T02:42:45.565Z,99.99
2023-04-22T02:43:45.549Z,99.99
2023-04-22T02:44:45.549Z,99.99
2023-04-22T02:45:45.538Z,99.99
2023-04-22T02:46:45.610Z,99.99
2023-04-22T02:47:45.772Z,99.99
2023-04-22T02:48:45.495Z,99.99
2023-04-22T02:49:45.482Z,99.99
2023-04-22T02:50:45.451Z,99.99
2023-04-22T02:51:45.476Z,99.99
2023-04-22T02:52:45.427Z,99.99
2023-04-22T02:53:45.497Z,99.99
2023-04-22T02:54:45.437Z,99.99
2023-04-22T02:55:45.602Z,99.99
2023-04-22T02:56:45.440Z,99.99
2023-04-22T02:57:45.400Z,99.99
2023-04-22T02:58:45.388Z,99.99
2023-04-22T02:59:45.364Z,99.99
2023-04-22T03:00:45.404Z,99.99
2023-04-22T03:01:45.434Z,99.99
2023-04-22T03:02:45.521Z,99.99
2023-04-22T03:03:45.463Z,99.99
2023-04-22T03:04:45.327Z,99.99
2023-04-22T03:05:45.366Z,99.99
2023-04-22T03:06:45.485Z,99.99
2023-04-22T03:07:45.290Z,99.99
2023-04-22T03:08:45.264Z,99.99
2023-04-22T03:09:45.276Z,99.99
2023-04-22T03:10:45.243Z,99.99
2023-04-22T03:11:45.227Z,99.99
2023-04-22T03:12:45.233Z,99.99
2023-04-22T03:13:45.204Z,99.99
2023-04-22T03:14:45.238Z,99.99
2023-04-22T03:15:45.222Z,99.99
2023-04-22T03:16:45.255Z,99.99
2023-04-22T03:17:45.192Z,99.99
2023-04-22T03:18:45.167Z,99.99
2023-04-22T03:19:45.137Z,99.99
2023-04-22T03:20:45.165Z,99.99
2023-04-22T03:21:45.146Z,99.99
2023-04-22T03:22:45.140Z,99.99
2023-04-22T03:23:45.097Z,99.99
2023-04-22T03:24:45.086Z,99.99
2023-04-22T03:25:45.086Z,99.99
2023-04-22T03:26:45.091Z,99.99
2023-04-22T03:27:45.082Z,99.99
2023-04-22T03:28:45.079Z,99.99
2023-04-22T03:29:45.042Z,99.99
2023-04-22T03:30:45.030Z,99.99
2023-04-22T03:31:45.189Z,99.99
2023-04-22T03:32:45.096Z,99.99
2023-04-22T03:33:45.009Z,99.99
2023-04-22T03:34:45.010Z,99.99
2023-04-22T03:35:44.977Z,99.99
2023-04-22T03:36:44.984Z,99.99
2023-04-22T03:37:44.973Z,99.99
2023-04-22T03:38:44.941Z,99.99
2023-04-22T03:39:44.961Z,99.99
2023-04-22T03:40:44.948Z,99.99
2023-04-22T03:41:44.903Z,99.99
2023-04-22T03:42:44.916Z,99.99
2023-04-22T03:43:44.883Z,99.99
2023-04-22T03:44:44.936Z,99.99
2023-04-22T03:45:44.873Z,99.99
2023-04-22T03:46:44.872Z,99.99
2023-04-22T03:47:44.892Z,99.99
2023-04-22T03:48:44.878Z,99.99
2023-04-22T03:49:44.842Z,99.99
2023-04-22T03:50:44.867Z,99.99
2023-04-22T03:51:44.803Z,99.99
2023-04-22T03:52:44.780Z,99.99
2023-04-22T03:53:44.813Z,99.99
2023-04-22T03:54:44.826Z,99.99
2023-04-22T03:55:44.877Z,99.99
2023-04-22T03:56:44.818Z,99.99
2023-04-22T03:57:44.769Z,99.99
2023-04-22T03:58:44.736Z,99.99
2023-04-22T03:59:44.715Z,99.99
2023-04-22T04:00:44.733Z,99.99
2023-04-22T04:01:44.723Z,99.99
2023-04-22T04:02:44.986Z,99.99
2023-04-22T04:03:44.870Z,99.99
2023-04-22T04:04:44.994Z,99.99
2023-04-22T04:05:44.735Z,99.99
2023-04-22T04:06:44.704Z,99.99
2023-04-22T04:07:44.644Z,99.99
2023-04-22T04:08:44.612Z,99.99
2023-04-22T04:09:44.624Z,99.99
2023-04-22T04:10:44.610Z,99.99
2023-04-22T04:11:44.646Z,99.99
2023-04-22T04:12:44.596Z,99.99
2023-04-22T04:13:44.560Z,99.99
2023-04-22T04:14:44.639Z,99.99
2023-04-22T04:15:44.561Z,99.99
2023-04-22T04:16:44.585Z,99.99
2023-04-22T04:17:44.612Z,99.99
2023-04-22T04:18:44.502Z,99.99
2023-04-22T04:19:44.597Z,99.99
2023-04-22T04:20:44.530Z,99.99
2023-04-22T04:21:44.496Z,99.99
2023-04-22T04:22:44.602Z,99.99
2023-04-22T04:23:44.478Z,99.99
2023-04-22T04:24:44.438Z,99.99
2023-04-22T04:25:44.435Z,99.99
2023-04-22T04:26:44.433Z,99.99
2023-04-22T04:27:44.658Z,99.99
2023-04-22T04:28:44.430Z,99.99
2023-04-22T04:29:44.509Z,99.99
2023-04-22T04:30:44.451Z,99.99
2023-04-22T04:31:44.483Z,99.99
2023-04-22T04:32:44.421Z,99.99
2023-04-22T04:33:44.374Z,99.99
2023-04-22T04:34:44.383Z,99.99
2023-04-22T04:35:44.345Z,99.99
2023-04-22T04:36:44.368Z,99.99
2023-04-22T04:37:44.337Z,99.99
2023-04-22T04:38:44.417Z,99.99
2023-04-22T04:39:44.315Z,99.99
2023-04-22T04:40:44.304Z,99.99
2023-04-22T04:41:44.259Z,99.99
2023-04-22T04:42:44.297Z,99.99
2023-04-22T04:43:44.283Z,99.99
2023-04-22T04:44:44.300Z,99.99
2023-04-22T04:45:46.211Z,99.99
2023-04-22T04:46:44.300Z,99.99
2023-04-22T04:47:44.270Z,99.99
2023-04-22T04:48:44.219Z,99.99
2023-04-22T04:49:44.192Z,99.99
2023-04-22T04:50:44.191Z,99.99
2023-04-22T04:51:44.173Z,99.99
2023-04-22T04:52:44.175Z,99.99
2023-04-22T04:53:44.151Z,99.99
2023-04-22T04:54:44.154Z,99.99
2023-04-22T04:55:44.127Z,99.99
2023-04-22T04:56:44.103Z,99.99
2023-04-22T04:57:44.147Z,99.99
2023-04-22T04:58:44.118Z,99.99
2023-04-22T04:59:44.153Z,99.99
2023-04-22T05:00:44.102Z,99.99
2023-04-22T05:01:44.117Z,99.99
2023-04-22T05:02:44.179Z,99.99
2023-04-22T05:03:44.197Z,99.99
2023-04-22T05:04:44.257Z,99.99
2023-04-22T05:05:44.046Z,99.99
2023-04-22T05:06:44.027Z,99.99
2023-04-22T05:07:44.026Z,99.99
2023-04-22T05:08:44.064Z,99.99
2023-04-22T05:09:43.963Z,99.99
2023-04-22T05:10:43.972Z,99.99
2023-04-22T05:11:43.986Z,99.99
2023-04-22T05:12:43.971Z,99.99
2023-04-22T05:13:43.995Z,99.99
2023-04-22T05:14:43.983Z,99.99
2023-04-22T05:15:43.966Z,99.99
2023-04-22T05:16:43.965Z,99.99
2023-04-22T05:17:43.959Z,99.99
2023-04-22T05:18:43.908Z,99.99
2023-04-22T05:19:43.877Z,99.99
2023-04-22T05:20:43.896Z,99.99
2023-04-22T05:21:43.882Z,99.99
2023-04-22T05:22:43.971Z,99.99
2023-04-22T05:23:43.885Z,99.99
2023-04-22T05:24:43.846Z,99.99
2023-04-22T05:25:43.844Z,99.99
2023-04-22T05:26:43.826Z,99.99
2023-04-22T05:27:43.867Z,99.99
2023-04-22T05:28:43.821Z,99.99
2023-04-22T05:29:43.812Z,99.99
2023-04-22T05:30:43.826Z,99.99
2023-04-22T05:31:43.855Z,99.99
2023-04-22T05:32:43.844Z,99.99
2023-04-22T05:33:43.818Z,99.99
2023-04-22T05:34:43.783Z,99.99
2023-04-22T05:35:43.766Z,99.99
2023-04-22T05:36:43.774Z,99.99
2023-04-22T05:37:43.723Z,99.99
2023-04-22T05:38:43.710Z,99.99
2023-04-22T05:39:43.691Z,99.99
2023-04-22T05:40:43.732Z,99.99
2023-04-22T05:41:46.169Z,99.99
2023-04-22T05:42:43.672Z,99.99
2023-04-22T05:43:43.679Z,99.99
2023-04-22T05:44:43.700Z,99.99
2023-04-22T05:45:43.682Z,99.99
2023-04-22T05:46:43.676Z,99.99
2023-04-22T05:47:43.660Z,99.99
2023-04-22T05:48:43.612Z,99.99
2023-04-22T05:49:43.626Z,99.99
2023-04-22T05:50:43.880Z,99.99
2023-04-22T05:51:43.594Z,99.99
2023-04-22T05:52:43.591Z,99.99
2023-04-22T05:53:43.567Z,99.99
2023-04-22T05:54:43.599Z,99.99
2023-04-22T05:55:43.579Z,99.99
2023-04-22T05:56:43.553Z,99.99
2023-04-22T05:57:43.550Z,99.99
2023-04-22T05:58:43.581Z,99.99
2023-04-22T05:59:43.677Z,99.47
2023-04-22T06:00:43.574Z,94.79
2023-04-22T06:01:43.517Z,94.27
2023-04-22T06:02:43.707Z,95.03
2023-04-22T06:03:43.698Z,95.51
2023-04-22T06:04:43.815Z,92.50
2023-04-22T06:05:43.619Z,89.73
2023-04-22T06:06:43.557Z,89.53
2023-04-22T06:07:43.462Z,89.15
2023-04-22T06:08:43.468Z,90.59
2023-04-22T06:09:43.482Z,89.44
2023-04-22T06:10:43.424Z,89.34
2023-04-22T06:11:43.466Z,90.59
2023-04-22T06:12:43.412Z,90.44
2023-04-22T06:13:43.417Z,89.20
2023-04-22T06:14:43.398Z,87.86
2023-04-22T06:15:43.628Z,87.48
2023-04-22T06:16:43.361Z,87.86
2023-04-22T06:17:43.386Z,86.33
2023-04-22T06:18:43.788Z,84.52
2023-04-22T06:19:43.339Z,85.38
2023-04-22T06:20:43.398Z,85.47
2023-04-22T06:21:43.323Z,86.94
2023-04-22T06:22:43.304Z,85.13
2023-04-22T06:23:43.306Z,84.75
2023-04-22T06:24:43.376Z,84.84
2023-04-22T06:25:43.304Z,86.18
2023-04-22T06:26:43.305Z,85.41
2023-04-22T06:27:43.321Z,85.13
2023-04-22T06:28:43.294Z,83.22
2023-04-22T06:29:43.265Z,83.89
2023-04-22T06:30:43.287Z,82.74
2023-04-22T06:31:43.411Z,83.03
2023-04-22T06:32:43.276Z,85.27
2023-04-22T06:33:43.435Z,85.65
2023-04-22T06:34:43.233Z,83.73
2023-04-22T06:35:43.263Z,82.87
2023-04-22T06:36:43.230Z,81.63
2023-04-22T06:37:43.272Z,81.54
2023-04-22T06:38:43.180Z,82.11
2023-04-22T06:39:43.392Z,81.92
2023-04-22T06:40:43.205Z,81.44
2023-04-22T06:41:43.196Z,81.92
2023-04-22T06:42:43.165Z,81.63
2023-04-22T06:43:43.136Z,81.34
2023-04-22T06:44:43.186Z,80.87
2023-04-22T06:45:43.151Z,80.29
2023-04-22T06:46:43.169Z,80.48
2023-04-22T06:47:43.413Z,80.67
2023-04-22T06:48:43.133Z,81.25
2023-04-22T06:49:43.128Z,80.29
2023-04-22T06:50:43.110Z,79.81
2023-04-22T06:51:43.090Z,80.62
2023-04-22T06:52:43.112Z,80.14
2023-04-22T06:53:43.129Z,79.57
2023-04-22T06:54:43.091Z,79.85
2023-04-22T06:55:43.085Z,81.23
2023-04-22T06:56:43.107Z,79.51
2023-04-22T06:57:43.276Z,78.64
2023-04-22T06:58:43.061Z,78.64
2023-04-22T06:59:44.537Z,79.80
2023-04-22T07:00:43.081Z,78.74
2023-04-22T07:01:43.302Z,78.17
2023-04-22T07:02:43.074Z,77.59
2023-04-22T07:03:43.072Z,78.17
2023-04-22T07:04:43.219Z,78.07
2023-04-22T07:05:43.200Z,78.84
2023-04-22T07:06:43.027Z,77.59
2023-04-22T07:07:42.980Z,78.02
2023-04-22T07:08:43.005Z,77.06
2023-04-22T07:09:43.207Z,78.78
2023-04-22T07:10:42.967Z,78.97
2023-04-22T07:11:42.982Z,78.30
2023-04-22T07:12:43.024Z,76.81
2023-04-22T07:13:43.037Z,77.29
2023-04-22T07:14:42.956Z,77.38
2023-04-22T07:15:43.138Z,77.86
2023-04-22T07:16:43.062Z,76.42
2023-04-22T07:17:43.016Z,76.23
2023-04-22T07:18:42.969Z,77.19
2023-04-22T07:19:42.959Z,76.90
2023-04-22T07:20:42.952Z,78.05
2023-04-22T07:21:42.954Z,77.29
2023-04-22T07:22:42.984Z,77.48
2023-04-22T07:23:42.879Z,77.09
2023-04-22T07:24:42.889Z,78.25
2023-04-22T07:25:42.858Z,79.01
2023-04-22T07:26:42.882Z,76.71
2023-04-22T07:27:42.888Z,77.23
2023-04-22T07:28:42.853Z,75.50
2023-04-22T07:29:42.843Z,75.02
2023-04-22T07:30:42.878Z,77.23
2023-04-22T07:31:42.855Z,76.94
2023-04-22T07:32:42.853Z,75.50
2023-04-22T07:33:42.809Z,77.04
2023-04-22T07:34:42.799Z,75.21
2023-04-22T07:35:42.812Z,76.65
2023-04-22T07:36:42.793Z,76.56
2023-04-22T07:37:42.797Z,75.50
2023-04-22T07:38:42.823Z,75.40
2023-04-22T07:39:42.831Z,74.93
2023-04-22T07:40:42.787Z,75.70
2023-04-22T07:41:42.853Z,75.50
2023-04-22T07:42:42.779Z,75.60
2023-04-22T07:43:42.761Z,76.17
2023-04-22T07:44:42.789Z,75.70
2023-04-22T07:45:42.819Z,75.92
2023-04-22T07:46:42.771Z,73.24
2023-04-22T07:47:42.796Z,72.85
2023-04-22T07:48:42.754Z,72.56
2023-04-22T07:49:42.823Z,72.43
2023-04-22T07:50:42.723Z,72.43
2023-04-22T07:51:42.712Z,72.53
2023-04-22T07:52:42.722Z,73.58
2023-04-22T07:53:42.915Z,72.81
2023-04-22T07:54:42.698Z,73.58
2023-04-22T07:55:42.706Z,73.14
2023-04-22T07:56:42.666Z,72.66
2023-04-22T07:57:42.700Z,73.52
2023-04-22T07:58:42.704Z,72.63
2023-04-22T07:59:42.676Z,72.56
2023-04-22T08:00:42.719Z,72.75
2023-04-22T08:01:42.714Z,73.37
2023-04-22T08:02:42.871Z,72.95
2023-04-22T08:03:42.829Z,71.93
2023-04-22T08:04:42.807Z,70.29
2023-04-22T08:05:42.649Z,71.00
2023-04-22T08:06:42.638Z,70.39
2023-04-22T08:07:42.720Z,70.72
2023-04-22T08:08:42.646Z,69.56
2023-04-22T08:09:42.621Z,69.66
2023-04-22T08:10:42.638Z,70.39
2023-04-22T08:11:42.606Z,70.49
2023-04-22T08:12:42.618Z,71.58
2023-04-22T08:13:42.608Z,70.04
2023-04-22T08:14:42.599Z,69.85
2023-04-22T08:15:42.894Z,70.90
2023-04-22T08:16:42.582Z,69.27
2023-04-22T08:17:42.602Z,70.07
2023-04-22T08:18:42.576Z,68.25
2023-04-22T08:19:42.564Z,69.40
2023-04-22T08:20:42.572Z,69.40
2023-04-22T08:21:42.780Z,69.37
2023-04-22T08:22:42.799Z,69.85
2023-04-22T08:23:42.553Z,69.02
2023-04-22T08:24:42.548Z,68.63
2023-04-22T08:25:42.546Z,67.38
2023-04-22T08:26:42.606Z,67.19
2023-04-22T08:27:42.532Z,68.86
2023-04-22T08:28:42.533Z,66.94
2023-04-22T08:29:43.218Z,67.03
2023-04-22T08:30:42.519Z,67.83
2023-04-22T08:31:42.591Z,68.60
2023-04-22T08:32:42.602Z,66.68
2023-04-22T08:33:42.579Z,66.27
2023-04-22T08:34:43.939Z,67.22
2023-04-22T08:35:42.531Z,68.48
2023-04-22T08:36:42.518Z,66.65
2023-04-22T08:37:42.637Z,67.03
2023-04-22T08:38:42.485Z,66.97
2023-04-22T08:39:42.500Z,67.35
2023-04-22T08:40:42.530Z,66.71
2023-04-22T08:41:42.499Z,65.43
2023-04-22T08:42:42.527Z,64.40
2023-04-22T08:43:42.509Z,66.68
2023-04-22T08:44:42.498Z,66.10
2023-04-22T08:45:42.512Z,66.04
2023-04-22T08:46:42.514Z,66.24
2023-04-22T08:47:42.542Z,65.30
2023-04-22T08:48:42.519Z,65.20
2023-04-22T08:49:42.456Z,64.43
2023-04-22T08:50:42.489Z,64.47
2023-04-22T08:51:42.488Z,64.18
2023-04-22T08:52:42.455Z,64.37
2023-04-22T08:53:42.435Z,62.60
2023-04-22T08:54:42.483Z,63.67
2023-04-22T08:55:42.460Z,63.25
2023-04-22T08:56:42.476Z,63.34
2023-04-22T08:57:42.500Z,64.02
2023-04-22T08:58:42.477Z,63.25
2023-04-22T08:59:42.641Z,62.54
2023-04-22T09:00:42.450Z,63.22
2023-04-22T09:01:42.552Z,63.99
2023-04-22T09:02:42.518Z,64.98
2023-04-22T09:03:42.534Z,66.75
2023-04-22T09:04:42.432Z,63.57
2023-04-22T09:05:42.390Z,63.09
2023-04-22T09:06:42.469Z,61.16
2023-04-22T09:07:42.614Z,62.60
2023-04-22T09:08:42.411Z,60.80
2023-04-22T09:09:42.428Z,60.03
2023-04-22T09:10:42.363Z,61.51
2023-04-22T09:11:42.363Z,60.74
2023-04-22T09:12:42.456Z,59.00
2023-04-22T09:13:42.365Z,58.94
2023-04-22T09:14:42.387Z,59.90
2023-04-22T09:15:42.349Z,61.44
2023-04-22T09:16:42.367Z,60.96
2023-04-22T09:17:42.400Z,60.68
2023-04-22T09:18:42.340Z,57.94
2023-04-22T09:19:42.463Z,59.87
2023-04-22T09:20:42.434Z,58.52
2023-04-22T09:21:42.348Z,58.33
2023-04-22T09:22:42.342Z,58.14
2023-04-22T09:23:42.352Z,59.07
2023-04-22T09:24:42.312Z,59.07
2023-04-22T09:25:42.351Z,58.14
2023-04-22T09:26:42.334Z,58.91
2023-04-22T09:27:42.287Z,58.59
2023-04-22T09:28:42.301Z,58.01
2023-04-22T09:29:42.303Z,58.59
2023-04-22T09:30:42.316Z,60.90
2023-04-22T09:31:42.438Z,60.71
2023-04-22T09:32:42.386Z,58.88
2023-04-22T09:33:42.556Z,58.69
2023-04-22T09:34:42.269Z,58.81
2023-04-22T09:35:42.302Z,59.97
2023-04-22T09:36:42.287Z,57.94
2023-04-22T09:37:49.149Z,56.79
2023-04-22T09:38:42.273Z,57.37
2023-04-22T09:39:42.256Z,60.74
2023-04-22T09:40:42.251Z,56.69
2023-04-22T09:41:42.254Z,56.79
2023-04-22T09:42:42.348Z,57.17
2023-04-22T09:43:42.246Z,58.11
2023-04-22T09:44:42.244Z,59.68
2023-04-22T09:45:42.342Z,59.39
2023-04-22T09:46:42.232Z,57.94
2023-04-22T09:47:42.280Z,59.13
2023-04-22T09:48:42.240Z,59.61
2023-04-22T09:49:42.256Z,57.59
2023-04-22T09:50:42.233Z,56.14
2023-04-22T09:51:42.193Z,56.69
2023-04-22T09:52:42.226Z,57.39
2023-04-22T09:53:42.189Z,56.81
2023-04-22T09:54:42.223Z,55.76
2023-04-22T09:55:42.171Z,57.10
2023-04-22T09:56:42.174Z,54.91
2023-04-22T09:57:42.170Z,56.74
2023-04-22T09:58:42.192Z,56.84
2023-04-22T09:59:42.417Z,53.47
2023-04-22T10:00:42.169Z,55.30
2023-04-22T10:01:42.234Z,54.11
2023-04-22T10:02:42.308Z,54.50
2023-04-22T10:03:42.191Z,55.18
2023-04-22T10:04:42.146Z,55.85
2023-04-22T10:05:42.190Z,56.33
2023-04-22T10:06:42.171Z,56.52
2023-04-22T10:07:42.193Z,55.73
2023-04-22T10:08:42.155Z,57.49
2023-04-22T10:09:42.224Z,56.72
2023-04-22T10:10:42.135Z,56.36
2023-04-22T10:11:42.111Z,56.65
2023-04-22T10:12:42.123Z,54.33
2023-04-22T10:13:42.125Z,55.40
2023-04-22T10:14:42.127Z,54.94
2023-04-22T10:15:42.114Z,53.30
2023-04-22T10:16:42.161Z,54.62
2023-04-22T10:17:42.172Z,52.59
2023-04-22T10:18:42.129Z,54.05
2023-04-22T10:19:42.323Z,55.59
2023-04-22T10:20:42.109Z,55.30
2023-04-22T10:21:42.076Z,53.17
2023-04-22T10:22:42.076Z,53.95
2023-04-22T10:23:42.075Z,52.57
2023-04-22T10:24:42.117Z,55.01
2023-04-22T10:25:42.077Z,53.37
2023-04-22T10:26:42.107Z,55.40
2023-04-22T10:27:42.057Z,55.10
2023-04-22T10:28:42.051Z,56.00
2023-04-22T10:29:42.248Z,53.01
2023-04-22T10:30:42.306Z,54.17
2023-04-22T10:31:42.032Z,54.55
2023-04-22T10:32:42.060Z,53.78
2023-04-22T10:33:42.019Z,52.81
2023-04-22T10:34:42.031Z,52.53
2023-04-22T10:35:42.026Z,52.79
2023-04-22T10:36:42.021Z,53.75
2023-04-22T10:37:42.021Z,53.78
2023-04-22T10:38:42.083Z,52.62
2023-04-22T10:39:42.665Z,54.07
2023-04-22T10:40:42.017Z,54.17
2023-04-22T10:41:42.006Z,55.33
2023-04-22T10:42:42.016Z,52.53
2023-04-22T10:43:42.013Z,54.07
2023-04-22T10:44:42.010Z,53.88
2023-04-22T10:45:41.992Z,53.78
2023-04-22T10:46:42.023Z,54.43
2023-04-22T10:47:42.124Z,54.14
2023-04-22T10:48:41.986Z,54.05
2023-04-22T10:49:42.063Z,54.53
2023-04-22T10:50:41.958Z,55.23
2023-04-22T10:51:41.989Z,54.17
2023-04-22T10:52:41.973Z,52.91
2023-04-22T10:53:42.147Z,54.00
2023-04-22T10:54:41.962Z,53.78
2023-04-22T10:55:41.992Z,55.26
2023-04-22T10:56:48.432Z,53.81
2023-04-22T10:57:41.929Z,51.97
2023-04-22T10:58:41.965Z,52.84
2023-04-22T10:59:41.949Z,51.13
2023-04-22T11:00:52.268Z,50.33
2023-04-22T11:01:42.009Z,51.90
2023-04-22T11:02:42.126Z,52.39
2023-04-22T11:03:42.020Z,51.03
2023-04-22T11:04:41.959Z,52.09
2023-04-22T11:05:41.920Z,50.07
2023-04-22T11:06:41.922Z,50.07
2023-04-22T11:07:41.918Z,51.03
2023-04-22T11:08:41.931Z,50.35
2023-04-22T11:09:41.971Z,49.68
2023-04-22T11:10:43.761Z,50.16
2023-04-22T11:11:41.906Z,51.03
2023-04-22T11:12:42.108Z,50.09
2023-04-22T11:13:41.896Z,49.51
2023-04-22T11:14:41.868Z,50.28
2023-04-22T11:15:41.892Z,48.83
2023-04-22T11:16:41.976Z,47.36
2023-04-22T11:17:41.928Z,50.35
2023-04-22T11:18:41.939Z,49.51
2023-04-22T11:19:41.872Z,50.76
2023-04-22T11:20:41.887Z,50.48
2023-04-22T11:21:41.915Z,49.68
2023-04-22T11:22:41.891Z,51.03
2023-04-22T11:23:41.834Z,48.59
2023-04-22T11:24:41.852Z,49.55
2023-04-22T11:25:41.911Z,50.33
2023-04-22T11:26:41.851Z,49.17
2023-04-22T11:27:41.869Z,49.10
2023-04-22T11:28:41.999Z,51.71
2023-04-22T11:29:41.885Z,49.19
2023-04-22T11:30:41.836Z,48.49
2023-04-22T11:31:41.944Z,50.04
2023-04-22T11:32:41.865Z,51.10
2023-04-22T11:33:41.827Z,50.33
2023-04-22T11:34:41.807Z,49.37
2023-04-22T11:35:41.834Z,50.04
2023-04-22T11:36:41.829Z,50.71
2023-04-22T11:37:41.811Z,50.04
2023-04-22T11:38:41.790Z,48.69
2023-04-22T11:40:01.647Z,50.04
2023-04-22T11:40:45.044Z,48.88
2023-04-22T11:41:41.803Z,49.17
2023-04-22T11:42:41.823Z,49.75
2023-04-22T11:43:41.776Z,51.20
2023-04-22T11:44:41.820Z,50.04
2023-04-22T11:45:41.845Z,49.46
2023-04-22T11:46:41.808Z,50.71
2023-04-22T11:47:41.822Z,49.17
2023-04-22T11:48:41.799Z,49.95
2023-04-22T11:49:41.791Z,50.13
2023-04-22T11:50:41.785Z,49.15
2023-04-22T11:51:41.760Z,48.66
2023-04-22T11:52:42.000Z,49.27
2023-04-22T11:53:41.961Z,48.79
2023-04-22T11:54:41.741Z,49.07
2023-04-22T11:55:41.769Z,47.14
2023-04-22T11:56:41.744Z,47.33
2023-04-22T11:57:41.752Z,50.62
2023-04-22T11:58:41.763Z,48.71
2023-04-22T11:59:41.970Z,48.01
2023-04-22T12:00:41.738Z,48.81
2023-04-22T12:01:41.786Z,49.00
2023-04-22T12:02:41.848Z,49.39
2023-04-22T12:03:42.449Z,46.00
2023-04-22T12:04:41.708Z,46.56
2023-04-22T12:05:41.732Z,46.56
2023-04-22T12:06:41.895Z,46.47
2023-04-22T12:07:41.748Z,47.33
2023-04-22T12:08:41.697Z,47.74
2023-04-22T12:09:41.903Z,47.05
2023-04-22T12:10:41.711Z,49.95
2023-04-22T12:11:41.675Z,49.68
2023-04-22T12:12:41.694Z,48.71
2023-04-22T12:13:41.681Z,46.12
2023-04-22T12:14:41.654Z,46.51
2023-04-22T12:15:41.657Z,46.61
2023-04-22T12:16:41.700Z,46.03
2023-04-22T12:17:41.718Z,44.96
2023-04-22T12:18:41.665Z,45.45
2023-04-22T12:19:41.968Z,46.44
2023-04-22T12:20:41.642Z,45.86
2023-04-22T12:21:41.642Z,47.50
2023-04-22T12:22:41.835Z,45.54
2023-04-22T12:23:41.645Z,45.16
2023-04-22T12:24:41.644Z,43.90
2023-04-22T12:25:41.690Z,44.38
2023-04-22T12:26:41.645Z,44.21
2023-04-22T12:27:41.626Z,44.12
2023-04-22T12:28:41.845Z,45.37
2023-04-22T12:29:41.665Z,44.40
2023-04-22T12:30:41.681Z,44.09
2023-04-22T12:31:41.783Z,43.71
2023-04-22T12:32:41.684Z,44.48
2023-04-22T12:33:41.665Z,44.07
2023-04-22T12:34:41.613Z,45.14
2023-04-22T12:35:41.644Z,45.62
2023-04-22T12:36:41.629Z,45.91
2023-04-22T12:37:41.591Z,45.42
2023-04-22T12:38:41.604Z,44.84
2023-04-22T12:39:41.772Z,46.20
2023-04-22T12:40:41.583Z,44.07
2023-04-22T12:41:41.620Z,44.46
2023-04-22T12:42:41.627Z,45.04
2023-04-22T12:43:41.562Z,45.64
2023-04-22T12:44:41.571Z,45.08
2023-04-22T12:45:41.585Z,44.31
2023-04-22T12:46:41.646Z,45.47
2023-04-22T12:47:41.565Z,45.95
2023-04-22T12:48:41.579Z,44.09
2023-04-22T12:49:42.282Z,44.98
2023-04-22T12:50:41.574Z,46.15
2023-04-22T12:51:41.589Z,45.66
2023-04-22T12:52:41.544Z,44.09